EDDF 251320Z 27003KT 230V320 CAVOK 11/06 Q1020 NOSIG=
EDDH 251320Z 17007KT 9999 FEW030 BKN033 12/08 Q1016 NOSIG=
EETN 251320Z 23014KT 9999 BKN037 09/04 Q1015 NOSIG=
EFHK 251320Z 22014KT 9999 BKN030 09/05 Q1013 NOSIG=
EPWA 251330Z 16010KT CAVOK 11/02 Q1024 NOSIG=
EVRA 251320Z 18012KT CAVOK 09/04 Q1020 R18/190095 NOSIG=
EYVI 251320Z 19014KT CAVOK 08/02 Q1025 NOSIG=
HECA 251330Z 01005KT 9999 FEW025 26/14 Q1015 NOSIG=
HEGN 251300Z 35011KT CAVOK 29/13 Q1011 NOSIG=
HESH 251300Z 03008KT CAVOK 28/15 Q1012 NOSIG=
KQTZ 251255Z 31007KT 9999 SKC 30/01 A2995 RMK SLP145=
LBBG 251330Z 09013KT 9999 FEW033 13/04 Q1031 NOSIG=
LBSF 251330Z 11012KT 090V150 CAVOK 12/M01 Q1029 NOSIG=
LCLK 251330Z 15005KT 120V190 9999 FEW020 25/15 Q1015 NOSIG=
LCPH 251330Z (AUTO) 31011KT 250V320 9999 NCD 24/14 Q1016=
LEBL 251330Z 13006KT 080V180 9999 FEW015 20/15 Q1021 NOSIG=
LGTS 251320Z 27007KT 9999 FEW025 17/04 Q1028 NOSIG=
LHBP 251330Z 16007KT 120V180 CAVOK 14/01 Q1028 NOSIG=
LIRA 251320Z 30004KT 260V350 CAVOK 21/09 Q1018=
LKPR 251330Z 14005KT CAVOK 09/01 Q1022 NOSIG=
LLBG 251320Z 31010KT CAVOK 25/16 Q1014 NOSIG=
LOWW 251320Z 14020KT CAVOK 12/M00 Q1024 NOSIG=
LTAC 251320Z 08010KT 020V120 9999 FEW040 12/M02 Q1025 NOSIG=
LTAI 251320Z 36010KT 9999 SCT030 BKN100 25/06 Q1016 NOSIG=
LTAJ 251320Z 00000KT CAVOK 23/02 Q1015 NOSIG=
LTAY 251250Z 06008KT 9999 SCT035 BKN100 16/03 Q1021=
LTAZ 251320Z 01015KT 340V040 9999 SCT040 SCT100 12/02 Q1024=
LTBA 251320Z 05019KT 9999 SCT032 14/06 Q1029 NOSIG=
LTBR 251320Z 02011KT 9999 FEW035 15/04 Q1026 NOSIG=
LTBS 251320Z 22007KT 9999 FEW030 BKN200 24/17 Q1016 NOSIG=
LTBU 251320Z 03017KT 9999 BKN035 13/05 Q1029=
LTCE 251320Z 26011KT 9999 SCT035 05/M01 Q1023 NOSIG=
LTFE 251320Z VRB03KT 9999 FEW035 SCT200 25/08 Q1017 NOSIG=
LTFH 251250Z 17005KT 9999 BKN033 BKN090 11/09 Q1030 RESHRA NOSIG=
LUKK 251330Z 11004KT 070V160 CAVOK 11/M03 Q1032 R08/CLRD// NOSIG=
LYBE 251330Z 11013KT CAVOK 16/04 Q1026 NOSIG=
OIII 251330Z 18006KT CAVOK 21/M11 Q1017 A3005=
OIMM 251330Z 20006KT 9999 FEW040 SCT100 17/04 Q1017 A3006=
OLBA 251300Z 32009KT 8000 SCT039 25/16 Q1016 NOSIG=
OMDB 251300Z 28008KT 260V340 CAVOK 32/23 Q1010 NOSIG=
OSDI 251300Z 21012KT CAVOK 27/01 Q1015=
UAAA 251330Z 15002MPS 1200 R05R/P2000 FU NSC 08/02 Q1017 R05R/CLRD65 NOSIG=
UAAH 251130Z 09003MPS CAVOK 15/M04 Q1018 R05/0///60 NOSIG RMK QFE726/0968=
UAAT 251330Z 27001MPS 9999 NSC 05/M04 Q1016 NOSIG RMK QFE710/0947=
UACC 251330Z 16004MPS CAVOK 07/01 Q1016 R22/0///70 NOSIG RMK QFE731/0974=
UACK 251200Z 18003MPS CAVOK 10/M02 Q1013 R20/090070 NOSIG RMK QFE736/0981=
UACP 251130Z 19003MPS CAVOK 09/02 Q1013 R23/0/0060 NOSIG RMK QFE747/0996=
UADD 251330Z 24003MPS 9999 NSC 10/01 Q1015 R13/0///65 NOSIG RMK QFE704/0939=
UAII 251330Z 23003MPS CAVOK 13/01 Q1016 R28/0///70 NOSIG RMK QFE725/0966=
UAIT 251330Z 09002MPS CAVOK 13/M01 Q1015 R23/0///70 NOSIG RMK QFE735/0980=
UAKK 251330Z 12001MPS CAVOK 03/M03 Q1017 R23/0///70 NOSIG RMK QFE716/0955=
UAOO 251300Z 18003MPS CAVOK 15/M04 Q1013 NOSIG RMK QFE748/0997=
UARR 251330Z 31006MPS 9999 SCT039CB 05/02 Q1019 R22/CLRD70 NOSIG RMK QFE761/1014=
UASK 251330Z 07002MPS 9999 NSC 05/M00 Q1021 R12/090060 NOSIG RMK QFE740/0987=
UASP 251330Z 18004MPS CAVOK 06/01 Q1018 NOSIG RMK QFE752/1003=
UASS 251330Z 14002MPS CAVOK 04/M01 Q1020 R26/0///60 NOSIG RMK QFE747/0996=
UATE 251330Z 01008MPS 9999 SCT050 13/09 Q1018 R30/0///70 NOSIG RMK QFE762/1016=
UATG 251330Z 34008MPS 9999 SCT033CB 11/M01 Q1019 R32/CLRD70 NOSIG RMK QFE766/1022=
UATT 251330Z 30004MPS CAVOK 03/01 Q1014 R30/19//55 NOSIG RMK QFE741/0988=
UAUU 251330Z 00000MPS 2800 BR BKN003 OVC030 07/07 Q1009 R15/290055 NOSIG RMK QBB110 QFE741/0988=
UBBB 251330Z 34027G37KT 9999 OVC019 14/10 Q1020 R88/CLRD// NOSIG=
UBBF 251330Z 04006KT 9999 BKN040 16/05 Q1019 R29/CLRD// NOSIG=
UBBG 251330Z 29024KT 9999 BKN100 14/M00 Q1021 R30/CLRD// NOSIG=
UBBL 251300Z 07006KT 9999 SCT018 18/13 Q1020 R33/CLRD// NOSIG RMK MT OP=
UBBN 251330Z 28010KT 9999 FEW046 SCT100 19/M03 Q1015 R88/CLRD// NOSIG RMK MT OP QFE686=
UBBQ 251300Z 30008KT 9999 BKN200 16/05 Q1018 R34/////// NOSIG RMK MT OP=
UBBY 251300Z 31004KT 9999 SCT100 13/05 Q1022 R33/CLRD// NOSIG RMK MT OP=
UBEE 251300Z 31017KT 9999 SCT042CB OVC080 19/M01 Q1018 R30/CLRD// NOSIG=
UCFL 251300Z 04002MPS 9999 FEW030 05/02 Q1022 R07/CLRD95=
UCFM 251330Z 12003MPS 7000 NSC 12/03 Q1016 R08/0///95 NOSIG=
UCFO 251330Z VRB01MPS 2100 1200N R12/P1500D FU NSC 09/00 Q1017 R12/0///95 TEMPO 1000 BR FU=
UDSG 251330Z 03003KT 360V070 9999 -RA OVC015 02/M00 Q1023 RMK R02/29//55 NOSIG=
UDYZ 251330Z 24014KT 9999 SCT046 15/M03 Q1018 R27/010070 NOSIG=
UEEE 251330Z 16001MPS 9999 SCT050CB M01/M01 Q1002 R23L/19//40 NOSIG RMK QFE743=
UERP 251300Z VRB01MPS 9999 BKN016CB BKN025 M03/M04 Q0995 R35/490340 RMK QFE702=
UERR 251300Z 26005G10MPS 9999 -SHSN BKN009 OVC016CB 00/M01 Q1001 R25/690334 NOSIG RMK QFE720/0961=
UGAM 251330Z (AUTO) 26007KT 230V290 //// ////// 08/02 Q1026=
UGKO 251330Z 23007KT 9999 OVC055 10/05 Q1027 R25/19//60 NOSIG=
UGMS 251330Z (AUTO) 23008KT //// ////// 03/M05 Q1025=
UGSB 251330Z 13006KT 090V160 5000 SHRA SCT018 BKN026CB 09/08 Q1030 R13/220255 NOSIG=
UGTB 251330Z 31028G38KT 9999 BKN070 10/01 Q1023 NOSIG=
UHHH 251330Z 19003MPS CAVOK 07/M01 Q1016 R23R/090060 NOSIG RMK QFE756/1008=
UHMA 251300Z 30008MPS 9999 OVC027 M14/M16 Q1003 R01/60D NOSIG RMK TDZ R01/30008G10MPS END R01/31007G10MPS QFE749/0999=
UHMM 251300Z 33002MPS 9999 SCT021 M10/M12 Q1005 RMK QFE739 R28/10001MPS=
UHPP 251300Z 34002MPS CAVOK M02/M06 Q1017 R34L/CLRD70 NOSIG RMK QFE759/1012=
UHSS 251300Z 11002MPS 9999 NSC 00/M01 Q1020 R01/CLRD70 NOSIG RMK QFE763/1018=
UHWW 251330Z 05002MPS 1100 0700E R25L/1600D FG BKN005 05/04 Q1020 R25L/0///70 TEMPO 0300 FG VV002 RMK QBB150 MT OBSC QFE763=
UIAA 251330Z (AUTO) 28007MPS 9999 NCD 04/M03 Q1016 RMK QFE704/0938=
UIBB 251330Z 20004MPS 170V230 9999 -SHRASN OVC022CB 04/03 Q1013 R30/290150 NOSIG RMK QFE717/0956=
UIII 251330Z 16005MPS CAVOK 03/M02 Q1021 R30/60D NOSIG RMK QFE721/0961=
UIUU 251330Z 26004MPS 9999 NSC 00/M02 Q1023 R26/60D NOSIG RMK QFE723/0964=
UKBB 251330Z VRB01MPS CAVOK 09/M04 Q1032 R88/CLRD// NOSIG=
UKDD 251330Z 32003MPS 280V010 CAVOK 08/M04 Q1032 R26/090070 NOSIG=
UKDE 251330Z 35002MPS 310V020 CAVOK 08/M05 Q1032 R02/090070 NOSIG=
UKDR 251300Z 05002MPS 340V120 CAVOK 09/M02 Q1032 R36/09//70 NOSIG=
UKHH 251330Z 35002MPS 300V010 CAVOK 06/M06 Q1032 R07/0///81 NOSIG=
UKKK 251330Z VRB01MPS CAVOK 09/M03 Q1032 R26/CLRD70 NOSIG=
UKKM 251330Z (AUTO) 18002MPS 140V220 9999 // NCD 08/M05 Q1032=
UKLI 251330Z 11004MPS CAVOK 12/M03 Q1029 R10/090070 NOSIG=
UKLL 251330Z 16004MPS 130V200 CAVOK 11/M00 Q1028 R13/CLRD// NOSIG=
UKLN 251000Z 12005MPS 090V180 CAVOK 10/M01 Q1032 R15/09//70 NOSIG=
UKLR 251330Z 18004MPS 150V210 CAVOK 11/M02 Q1030 R11/090070 NOSIG=
UKLU 251330Z 12003MPS 060V200 9999 NSC 13/00 Q1029 NOSIG=
UKON 251330Z 36002MPS 310V070 CAVOK 08/M02 Q1033 R04/090075 NOSIG=
UKOO 251330Z 08002MPS 040V110 CAVOK 09/M00 Q1033 R16/090095 NOSIG=
UKWW 251330Z 15002MPS 120V220 CAVOK 09/M04 Q1031 NOSIG=
ULAA 251330Z VRB01MPS 9999 SCT020 M01/M03 Q1013 R26/550360 NOSIG RMK QFE759/1012=
ULLI 251330Z 24007MPS 9999 BKN024 09/04 Q1015 R88/190055 NOSIG=
ULMM 251330Z 00000MPS CAVOK M08/M08 Q1011 R31/320065 NOSIG RMK QFE751=
ULOO 251330Z 20004MPS 9999 BKN036 07/03 Q1021 R19/090060 NOSIG RMK QFE761=
ULPB 251330Z 22005MPS 3700 -RA OVC005 05/05 Q1008 R19/290250 NOSIG RMK QBB170 QFE752/1003=
ULWC 251330Z 23004G09MPS 4000 -SHSNRA BKN005 OVC013CB 00/M00 Q1018 R21/390052 NOSIG RMK QFE753/1004=
UMBB 251300Z 16004G07MPS 9000 NSC 12/M02 Q1027 R11/CLRD// NOSIG=
UMGG 251330Z 21002MPS CAVOK 08/M01 Q1032 R28/CLRD// NOSIG=
UMII 251300Z 22005G08MPS CAVOK 07/00 Q1026 R23/CLRD// NOSIG=
UMIO 251330Z 22005MPS CAVOK 07/M00 Q1028 R05/////// NOSIG RMK QFE753/1004=
UMKK 251330Z 17004MPS 130V220 CAVOK 12/04 Q1020 R24/95D NOSIG RMK QFE764/1019=
UMMG 251300Z 18004G07MPS CAVOK 10/01 Q1027 R17/CLRD// NOSIG=
UMMS 251330Z 21006G10MPS CAVOK 07/00 Q1028 R13L/CLRD// R13R/////// NOSIG=
UMOO 251300Z 21004G07MPS CAVOK 08/00 Q1029 R13/CLRD// NOSIG=
UNAA 251330Z 18003MPS CAVOK 09/03 Q1018 R20/CLRD65 NOSIG RMK QFE741=
UNBB 251330Z 21004MPS CAVOK 09/M00 Q1019 R24/CLRD66 NOSIG RMK QFE742=
UNEE 251330Z 21007MPS CAVOK 09/02 Q1014 R23/CLRD60 NOSIG RMK QFE738=
UNKL 251330Z 23008G14MPS CAVOK 10/03 Q1010 R29/150060 NOSIG RMK QFE732=
UNNT 251330Z 24006MPS 9999 SCT046 10/M02 Q1016 R25/090070 R16/090070 NOSIG RMK QFE752/1002=
UNOO 251330Z 20003MPS 9999 SCT033CB 09/01 Q1014 R25/CLRD60 NOSIG RMK QFE752=
UNTT 251330Z 27009G14MPS CAVOK 10/M00 Q1011 R21/////// NOSIG RMK QFE743=
UNWW 251330Z 22007MPS CAVOK 11/01 Q1018 R19/210260 NOSIG RMK QFE737=
UOOO 251300Z 20006MPS 2400 -SN DRSN SCT014 M03/M03 Q0991 R19/490538 NOSIG RMK QFE727/0970=
URFF 251330Z 03003MPS 9999 OVC054 09/01 Q1031 R01/090095 NOSIG=
URKA 251330Z 03005MPS CAVOK 09/03 Q1030 R04/010070 NOSIG RMK QFE769/1025=
URKK 251330Z 36003MPS CAVOK 09/05 Q1029 R23L/CLRD70 NOSIG RMK QFE769=
URMG 251330Z 30005MPS 9999 -SHRA SCT/// BKN014CB 05/04 Q1028 R26/290250 NOSIG RMK QFE756/1009=
URML 251330Z 34013MPS 9999 FEW022CB 07/03 Q1025 R32/01//70 TEMPO 31018G25MPS RMK QFE768/1024=
URMM 251330Z 27006MPS 9999 OVC052 05/02 Q1029 R30/190060 NOSIG RMK QFE743/0990=
URMN 251330Z 01001MPS 9999 -SHRA OVC016CB 04/02 Q1028 R24/210155 NOSIG RMK MT OBSC QFE734=
URMO 251330Z 29003MPS 9000 BKN005 OVC018 04/03 Q1028 R09/290150 NOSIG RMK MT OBSC QFE727/0969=
URMT 251330Z 32003MPS 9999 BKN033 04/01 Q1028 R25/010070 NOSIG RMK QFE732=
URRP 251330Z 36004MPS 9999 FEW/// 07/M07 Q1030 R05/CLRD70 NOSIG RMK QFE768/1024=
URSS 251330Z 28004MPS 9999 FEW060 13/M00 Q1026 WS ALL RWY R02/010070 R06/010070 NOSIG RMK R06/30005MPS QFE768=
URWA 251330Z 31004MPS 9999 BKN046 11/M03 Q1023 R27/010070 NOSIG RMK QFE769/1026=
URWI 251330Z 34006MPS 9999 FEW/// 07/M02 Q1027 R27/190060 NOSIG=
URWW 251330Z 36007MPS 9999 BKN031 03/M05 Q1027 R06/010070 NOSIG=
USCC 251330Z 27002MPS 9999 BKN030CB 04/00 Q1010 R27/290055 NOSIG RMK QFE738=
USCM 251330Z 31003MPS 7000 OVC012CB 03/02 Q1011 R36/190057 TEMPO 1000 SHRA BR VV003 RMK QFE720=
USDA 251330Z 28003MPS 6000 -SN SCT044 M11/M12 Q0996 R22/450252 NOSIG RMK QFE746/0995=
USHH 251330Z 18004MPS 9000 -RA BKN005 02/02 Q1006 R06/290050 TEMPO 2000 SNRA BKN003=
USNN 251330Z 22002MPS CAVOK M04/M05 Q1011 R03/35//57 NOSIG RMK QFE754=
USPP 251330Z 34003MPS 310V010 9999 BKN028 M01/M04 Q1015 R21/290147 NOSIG RMK QFE750=
USRR 251330Z 13001MPS CAVOK M03/M05 Q1010 R07/CLRD60 NOSIG RMK QFE752=
USSS 251330Z 23003MPS 9999 BKN034 03/M00 Q1010 R26L/210060 R26R/210060 NOSIG RMK QFE737/0982=
USTR 251330Z 20003MPS 9999 BKN038 04/00 Q1010 R21/190063 R30/190063 NOSIG=
UTAA 251300Z 09004KT 9999 NSC 21/03 Q1015 R88/70D NOSIG=
UTAK 251300Z 30016KT 9999 SCT026 17/10 Q1017 R16R/CLRD70 NOSIG=
UTAM 251300Z 32002KT 6000 SCT100 SCT230 20/01 Q1017 R88/CLRD70 NOSIG=
UTAT 251300Z 26006KT CAVOK 18/M03 Q1014 R26/CLRD70 NOSIG=
UTAV 251300Z 23004KT CAVOK 19/M04 Q1016 R31/CLRD70 NOSIG=
UTDD 251330Z 00000MPS 7000 NSC 15/03 Q1017 R09/CLRD// NOSIG RMK QFE694/0926=
UTDK 251330Z 03002MPS 9999 NSC 15/06 Q1017 R01/09//70 RMK QFE705/0940=
UTDL 251330Z 24002MPS 7000 NSC 11/02 Q1016 R26/CLRD70 NOSIG RMK QFE724/0966=
UTDT 251330Z 00000MPS 9999 NSC 15/05 Q1016 R35/CLRD70 RMK QFE722/0963=
UTFF 251300Z 00000KT 9999 NSC 15/M03 Q1016 R18/CLRD70=
UTNN 251300Z 20004KT CAVOK 19/M05 Q1014 R33/CLRD60 NOSIG=
UTNU 251300Z 26002KT CAVOK 18/M04 Q1014 R31/CLRD70 NOSIG=
UTSA 251300Z 21008KT 9999 NSC 16/M05 Q1016 R25/CLRD70 NOSIG=
UTSB 251300Z 23004KT 8000 NSC 18/M02 Q1016 R01/CLRD70 NOSIG=
UTSK 251300Z 32002KT CAVOK 17/M02 Q1017 R16/CLRD70=
UTSS 251300Z 25006KT 6000 NSC 17/M04 Q1017 R27/70D NOSIG=
UTST 251300Z 25002KT CAVOK 17/01 Q1016 R25/CLRD70 NOSIG=
UTTT 251300Z 09004KT 4000 FU NSC 17/02 Q1017 R08R/CLRD70 NOSIG=
UUBC 251330Z 24002MPS 210V310 9999 SCT/// 04/M04 Q1029 R13/CLRD60 NOSIG RMK QFE753/1004=
UUBP 251330Z 23004MPS CAVOK 05/M04 Q1030 R16/CLRD70 NOSIG RMK QFE754/1006=
UUBW 251330Z 24003MPS CAVOK 03/M05 Q1028 R30/010060 NOSIG=
UUDD 251330Z 25004MPS 200V280 CAVOK 03/M06 Q1028 R88/60D NOSIG=
UUDL 251330Z 21003MPS CAVOK 01/M05 Q1024 R23/010060 NOSIG RMK QFE760=
UUEE 251330Z 22005MPS CAVOK 03/M04 Q1026 R88/290051 NOSIG=
UUMO 251330Z 24004MPS CAVOK 02/M04 Q1028 R25/090060 NOSIG RMK QFE755/1007=
UUOB 251330Z 33002MPS 310V020 CAVOK 05/M05 Q1031 R29/010060 NOSIG=
UUOK 251330Z 32003MPS CAVOK 05/M07 Q1031 R30/CLRD65 NOSIG RMK QFE754/1006=
UUOL 251330Z 32004MPS CAVOK 03/M05 Q1030 R33/090060 NOSIG=
UUOO 251330Z 33004MPS CAVOK 04/M06 Q1030 R30/010070 NOSIG RMK QFE759=
UUWW 251330Z 22005MPS CAVOK 02/M04 Q1027 R24/110060 NOSIG=
UUYY 251330Z 24004MPS 9999 -SHSN BKN019CB M02/M03 Q1015 R18/520245 NOSIG RMK QFE753/1004=
UWGG 251330Z 27003MPS 9999 SCT033 01/M05 Q1026 R36R/090070 NOSIG=
UWKD 251330Z 33005MPS 9999 SCT033 00/M05 Q1022 R29/2/0050 NOSIG RMK QFE755/1007=
UWKE 251330Z 34008MPS 9999 BKN029CB 00/M04 Q1018 R03/210360 NOSIG RMK QFE747/0996=
UWKS 251330Z 32003MPS CAVOK M00/M05 Q1024 R24/190060 NOSIG RMK QFE753=
UWLL 251330Z 34008MPS 9999 BKN032CB 01/M05 Q1024 R02/150060 NOSIG RMK QFE755/1007=
UWLW 251300Z 34008MPS 9999 OVC027 02/M03 Q1022 R02/290150 NOSIG RMK QFE759=
UWOO 251330Z 21003MPS 9999 TS BKN040CB 07/04 Q1015 R26/290050 TEMPO 1000 TSRAGR RMK QFE750/1000=
UWOR 251300Z 33005MPS 9999 -RA OVC014 04/03 Q1012 R25/290255 NOSIG RMK QFE736/0981=
UWPS 251330Z 34006MPS 9999 BKN023 00/M06 Q1026 R02/190060 NOSIG RMK QFE749=
UWSG 251330Z 34008MPS 9999 BKN022CB OVC043 03/M02 Q1025 R26/CLRD70 NOSIG RMK QFE766/1022=
UWUU 251330Z 33004MPS 9999 BKN040CB 04/02 Q1013 R32L/290144 NOSIG=
UWWW 251330Z 33009MPS 9999 BKN013 03/M01 Q1020 WS R33 R33/190055 NOSIG RMK QFE754/1006=
ZMUB 251300Z 34002MPS CAVOK 01/M08 Q1025 NOSIG=